Hlavní strana
METAR-TAF:

METAR-TAF

Letiště :

Franceville, Gabon

zeměpisná šířka: 01-39S, zeměpisná délka: 013-26E, výška: 441 m

Aktuální stav počasí

Zpráva byla vytvořena před 34 minutami, v 16:00 UTC
Západní vítr 3 kt
Teplota 30°C
Vlhkost vzduchu 62%
Tlak 1011 hPa
Viditelnost 10 km a více
Polojasno ve výšce 1300 ft

METAR: FOON 211600Z 26003KT 9999 SCT013 30/22 Q1011

Čas: 17:34 (16:34 UTC)


TAF: chybějící

Stav a předpovědi počasí z více než 4 000 letišť (zprávy METAR a TAF).

Červené a žluté tečky na mapě představují dostupné meteorologické stanice.

Když kurzor umístíte na tečku, zobrazí se název stanice.

Pak kliknutím zobrazíte stav a předpověď počasí.

Chcete-li změnit mapu, kliknutím na zelené tlačítko se znaménkem +mapu přiblížíte, kliknutím na zelené tlačítko se znaménkem – mapu oddálíte a kliknutím na zelené šipky přejdete na sousední mapy.


METAR-TAF: